createdAt,value
2019-03-30T00:02:22.193Z,3.01
2019-03-30T00:04:50.920Z,2.96
2019-03-30T00:07:19.645Z,3.00
2019-03-30T00:09:48.522Z,3.00
2019-03-30T00:12:17.262Z,3.06
2019-03-30T00:14:45.995Z,3.13
2019-03-30T00:17:14.995Z,3.17
2019-03-30T00:19:43.726Z,3.15
2019-03-30T00:22:12.439Z,3.24
2019-03-30T00:24:41.419Z,3.24
2019-03-30T00:27:11.062Z,3.25
2019-03-30T00:29:39.783Z,3.19
2019-03-30T00:32:08.549Z,3.15
2019-03-30T00:34:37.263Z,3.06
2019-03-30T00:37:05.985Z,2.88
2019-03-30T00:39:34.775Z,2.78
2019-03-30T00:42:03.499Z,2.84
2019-03-30T00:44:32.224Z,2.77
2019-03-30T00:47:01.010Z,2.80
2019-03-30T00:49:29.725Z,2.82
2019-03-30T00:51:58.445Z,2.82
2019-03-30T00:54:27.300Z,2.90
2019-03-30T00:56:56.010Z,2.87
2019-03-30T00:59:24.721Z,2.90
2019-03-30T01:01:53.986Z,3.02
2019-03-30T01:04:22.698Z,3.06
2019-03-30T01:06:51.422Z,3.06
2019-03-30T01:09:20.181Z,3.07
2019-03-30T01:11:48.896Z,3.18
2019-03-30T01:14:17.718Z,3.14
2019-03-30T01:16:46.616Z,3.23
2019-03-30T01:19:15.342Z,3.26
2019-03-30T01:21:44.060Z,3.31
2019-03-30T01:24:12.820Z,3.25
2019-03-30T01:26:41.543Z,3.34
2019-03-30T01:29:10.267Z,3.47
2019-03-30T01:31:39.040Z,3.54
2019-03-30T01:34:07.759Z,3.48
2019-03-30T01:36:36.483Z,3.46
2019-03-30T01:39:07.456Z,3.42
2019-03-30T01:41:36.174Z,3.54
2019-03-30T01:44:04.997Z,3.73
2019-03-30T01:46:33.750Z,3.74
2019-03-30T01:49:02.479Z,3.78
2019-03-30T01:51:31.208Z,3.75
2019-03-30T01:53:59.974Z,3.64
2019-03-30T01:56:28.698Z,3.63
2019-03-30T01:58:57.428Z,3.66
2019-03-30T02:01:26.613Z,3.78
2019-03-30T02:03:55.402Z,3.68
2019-03-30T02:06:24.130Z,3.72
2019-03-30T02:08:53.104Z,3.75
2019-03-30T02:11:21.828Z,3.80
2019-03-30T02:13:50.552Z,3.83
2019-03-30T02:16:19.753Z,3.97
2019-03-30T02:18:48.480Z,3.99
2019-03-30T02:21:20.535Z,3.96
2019-03-30T02:23:49.586Z,4.00
2019-03-30T02:26:18.319Z,4.06
2019-03-30T02:28:47.045Z,4.18
2019-03-30T02:31:15.896Z,4.28
2019-03-30T02:33:44.621Z,4.40
2019-03-30T02:36:13.449Z,4.42
2019-03-30T02:38:42.226Z,4.45
2019-03-30T02:41:10.954Z,4.43
2019-03-30T02:43:39.672Z,4.29
2019-03-30T02:46:08.439Z,4.22
2019-03-30T02:48:37.160Z,4.29
2019-03-30T02:51:05.881Z,4.28
2019-03-30T02:53:34.691Z,4.38
2019-03-30T02:56:03.418Z,4.47
2019-03-30T02:58:32.143Z,4.41
2019-03-30T03:01:01.324Z,4.31
2019-03-30T03:03:30.049Z,4.39
2019-03-30T03:05:58.777Z,4.43
2019-03-30T03:08:27.662Z,4.34
2019-03-30T03:10:56.386Z,4.34
2019-03-30T03:13:25.121Z,4.17
2019-03-30T03:15:53.886Z,4.15
2019-03-30T03:18:22.611Z,4.05
2019-03-30T03:21:06.494Z,3.87
2019-03-30T03:23:21.819Z,3.83
2019-03-30T03:25:50.565Z,3.74
2019-03-30T03:28:19.280Z,3.56
2019-03-30T03:30:48.050Z,3.45
2019-03-30T03:33:16.765Z,3.53
2019-03-30T03:35:45.495Z,3.52
2019-03-30T03:38:14.682Z,3.55
2019-03-30T03:40:43.424Z,3.58
2019-03-30T03:43:12.136Z,3.56
2019-03-30T03:45:40.936Z,3.38
2019-03-30T03:48:09.665Z,3.35
2019-03-30T03:50:50.885Z,3.41
2019-03-30T03:53:19.617Z,3.52
2019-03-30T03:55:48.754Z,3.56
2019-03-30T03:58:17.814Z,3.43
2019-03-30T04:00:46.865Z,3.45
2019-03-30T04:03:17.639Z,3.64
2019-03-30T04:05:47.636Z,3.50
2019-03-30T04:08:17.002Z,3.53
2019-03-30T04:10:47.397Z,3.41
2019-03-30T04:13:16.374Z,3.52
2019-03-30T04:15:45.101Z,3.31
2019-03-30T04:18:13.925Z,3.35
2019-03-30T04:20:43.030Z,3.23
2019-03-30T04:23:11.756Z,3.27
2019-03-30T04:25:40.475Z,3.29
2019-03-30T04:28:09.288Z,3.31
2019-03-30T04:30:38.023Z,3.43
2019-03-30T04:33:08.013Z,3.38
2019-03-30T04:35:38.075Z,3.34
2019-03-30T04:38:06.809Z,3.33
2019-03-30T04:40:35.536Z,3.34
2019-03-30T04:43:04.420Z,3.54
2019-03-30T04:45:33.151Z,3.52
2019-03-30T04:48:01.864Z,3.37
2019-03-30T04:50:31.034Z,3.35
2019-03-30T04:52:59.760Z,3.47
2019-03-30T04:55:28.487Z,3.53
2019-03-30T04:57:57.752Z,3.40
2019-03-30T05:00:26.772Z,3.54
2019-03-30T05:02:55.492Z,3.44
2019-03-30T05:05:24.285Z,3.57
2019-03-30T05:07:53.088Z,3.75
2019-03-30T05:10:21.857Z,3.65
2019-03-30T05:12:50.749Z,3.81
2019-03-30T05:15:19.477Z,3.94
2019-03-30T05:17:48.319Z,3.79
2019-03-30T05:20:17.264Z,3.79
2019-03-30T05:22:45.991Z,3.80
2019-03-30T05:25:14.718Z,3.88
2019-03-30T05:27:43.568Z,3.95
2019-03-30T05:30:12.800Z,4.02
2019-03-30T05:32:41.991Z,4.21
2019-03-30T05:35:11.000Z,4.37
2019-03-30T05:37:39.721Z,4.35
2019-03-30T05:40:08.642Z,4.40
2019-03-30T05:42:37.814Z,4.49
2019-03-30T05:45:09.902Z,4.55
2019-03-30T05:47:38.626Z,4.63
2019-03-30T05:50:07.892Z,4.70
2019-03-30T05:52:36.632Z,4.72
2019-03-30T05:55:05.963Z,5.20
2019-03-30T05:57:35.088Z,5.15
2019-03-30T06:00:04.709Z,5.30
2019-03-30T06:02:33.436Z,5.29
2019-03-30T06:05:03.772Z,5.40
2019-03-30T06:07:32.719Z,5.63
2019-03-30T06:10:01.452Z,5.66
2019-03-30T06:12:30.262Z,5.83
2019-03-30T06:14:58.986Z,5.98
2019-03-30T06:17:27.714Z,6.09
2019-03-30T06:19:56.489Z,5.87
2019-03-30T06:22:25.219Z,6.02
2019-03-30T06:24:53.949Z,5.83
2019-03-30T06:27:22.809Z,5.87
2019-03-30T06:30:15.373Z,5.75
2019-03-30T06:32:45.688Z,5.85
2019-03-30T06:35:14.401Z,5.89
2019-03-30T06:37:43.129Z,5.97
2019-03-30T06:40:12.121Z,5.95
2019-03-30T06:42:40.851Z,6.12
2019-03-30T06:45:09.674Z,6.25
2019-03-30T06:47:38.463Z,6.38
2019-03-30T06:50:08.184Z,6.19
2019-03-30T06:52:36.903Z,6.26
2019-03-30T06:55:07.051Z,6.49
2019-03-30T06:57:35.774Z,6.53
2019-03-30T07:00:05.405Z,6.76
2019-03-30T07:02:34.265Z,6.55
2019-03-30T07:05:06.239Z,6.67
2019-03-30T07:07:35.271Z,6.65
2019-03-30T07:10:05.384Z,6.93
2019-03-30T07:12:37.022Z,7.18
2019-03-30T07:15:06.055Z,7.41
2019-03-30T07:17:37.861Z,7.44
2019-03-30T07:20:08.014Z,7.55
2019-03-30T07:22:36.763Z,7.58
2019-03-30T07:25:08.243Z,7.49
2019-03-30T07:27:36.960Z,7.59
2019-03-30T07:30:08.633Z,7.81
2019-03-30T07:32:37.481Z,7.95
2019-03-30T07:35:06.806Z,8.08
2019-03-30T07:37:35.530Z,8.05
2019-03-30T07:40:06.522Z,8.24
2019-03-30T07:42:35.258Z,8.16
2019-03-30T07:45:05.297Z,8.13
2019-03-30T07:47:34.076Z,8.12
2019-03-30T07:50:02.798Z,8.44
2019-03-30T07:52:31.529Z,8.57
2019-03-30T07:55:00.487Z,8.74
2019-03-30T07:57:29.224Z,8.52
2019-03-30T07:59:57.945Z,8.65
2019-03-30T08:02:26.705Z,8.84
2019-03-30T08:04:55.434Z,8.83
2019-03-30T08:07:24.166Z,8.84
2019-03-30T08:09:53.040Z,8.82
2019-03-30T08:12:21.921Z,8.95
2019-03-30T08:14:50.647Z,9.26
2019-03-30T08:17:19.536Z,9.49
2019-03-30T08:19:50.375Z,9.50
2019-03-30T08:22:18.709Z,9.69
2019-03-30T08:24:47.872Z,9.88
2019-03-30T08:27:16.606Z,9.85
2019-03-30T08:29:45.338Z,10.16
2019-03-30T08:32:14.143Z,10.32
2019-03-30T08:34:42.882Z,10.55
2019-03-30T08:37:11.610Z,10.93
2019-03-30T08:39:40.595Z,10.86
2019-03-30T08:42:09.329Z,10.69
2019-03-30T08:44:38.054Z,10.73
2019-03-30T08:47:06.830Z,10.57
2019-03-30T08:49:35.558Z,10.87
2019-03-30T08:52:04.291Z,10.95
2019-03-30T08:54:33.085Z,10.77
2019-03-30T08:57:01.826Z,10.72
2019-03-30T08:59:33.404Z,11.27
2019-03-30T09:02:02.554Z,11.14
2019-03-30T09:04:31.281Z,11.25
2019-03-30T09:07:00.024Z,11.08
2019-03-30T09:09:28.788Z,11.10
2019-03-30T09:11:57.526Z,11.06
2019-03-30T09:14:26.275Z,11.13
2019-03-30T09:16:55.037Z,11.15
2019-03-30T09:19:23.932Z,11.51
2019-03-30T09:21:52.670Z,11.71
2019-03-30T09:24:21.558Z,12.05
2019-03-30T09:26:50.329Z,12.38
2019-03-30T09:29:19.043Z,12.33
2019-03-30T09:31:47.899Z,12.35
2019-03-30T09:34:16.642Z,12.39
2019-03-30T09:36:45.481Z,12.57
2019-03-30T09:39:14.683Z,12.76
2019-03-30T09:41:43.415Z,12.78
2019-03-30T09:44:12.146Z,12.71
2019-03-30T09:46:41.108Z,12.89
2019-03-30T09:49:09.844Z,12.85
2019-03-30T09:51:38.580Z,13.54
2019-03-30T09:54:07.360Z,13.85
2019-03-30T09:56:36.087Z,13.94
2019-03-30T09:59:04.819Z,14.10
2019-03-30T10:01:33.595Z,14.48
2019-03-30T10:04:02.332Z,14.22
2019-03-30T10:06:34.642Z,14.16
2019-03-30T10:09:01.569Z,14.19
2019-03-30T10:11:30.299Z,14.32
2019-03-30T10:13:59.053Z,15.03
2019-03-30T10:16:27.929Z,16.42
2019-03-30T10:18:56.672Z,16.55
2019-03-30T10:21:25.404Z,16.42
2019-03-30T10:23:54.633Z,16.14
2019-03-30T10:26:23.360Z,16.73
2019-03-30T10:28:52.090Z,16.38
2019-03-30T10:31:20.878Z,15.79
2019-03-30T10:33:49.618Z,16.26
2019-03-30T10:36:18.332Z,16.75
2019-03-30T10:38:47.164Z,16.82
2019-03-30T10:41:15.889Z,16.61
2019-03-30T10:43:45.666Z,16.95
2019-03-30T10:46:14.564Z,17.02
2019-03-30T10:48:43.293Z,17.28
2019-03-30T10:51:12.023Z,16.98
2019-03-30T10:53:41.166Z,16.60
2019-03-30T10:56:09.900Z,16.98
2019-03-30T10:58:38.630Z,16.74
2019-03-30T11:01:07.646Z,16.76
2019-03-30T11:03:36.374Z,17.03
2019-03-30T11:06:05.114Z,16.99
2019-03-30T11:08:33.966Z,17.25
2019-03-30T11:11:02.719Z,17.22
2019-03-30T11:13:31.951Z,17.00
2019-03-30T11:16:03.987Z,16.88
2019-03-30T11:18:32.508Z,16.98
2019-03-30T11:21:01.365Z,16.01
2019-03-30T11:23:30.627Z,16.29
2019-03-30T11:26:00.759Z,16.80
2019-03-30T11:28:29.963Z,16.97
2019-03-30T11:30:58.836Z,17.14
2019-03-30T11:33:27.570Z,17.59
2019-03-30T11:35:59.147Z,17.81
2019-03-30T11:38:28.017Z,17.34
2019-03-30T11:40:56.767Z,17.72
2019-03-30T11:43:25.492Z,17.70
2019-03-30T11:45:54.472Z,17.73
2019-03-30T11:48:23.196Z,17.79
2019-03-30T11:50:51.933Z,17.80
2019-03-30T11:53:20.826Z,18.22
2019-03-30T11:55:49.554Z,17.89
2019-03-30T11:58:18.286Z,17.36
2019-03-30T12:00:47.166Z,17.16
2019-03-30T12:03:15.905Z,16.86
2019-03-30T12:05:44.646Z,17.07
2019-03-30T12:08:13.832Z,17.42
2019-03-30T12:10:42.653Z,16.76
2019-03-30T12:13:11.385Z,16.52
2019-03-30T12:15:40.607Z,16.11
2019-03-30T12:18:12.068Z,16.27
2019-03-30T12:20:40.798Z,16.95
2019-03-30T12:23:09.691Z,17.72
2019-03-30T12:25:38.433Z,18.41
2019-03-30T12:28:07.173Z,18.62
2019-03-30T12:30:35.944Z,18.35
2019-03-30T12:33:04.685Z,18.11
2019-03-30T12:35:33.419Z,18.12
2019-03-30T12:38:02.278Z,18.03
2019-03-30T12:40:30.996Z,18.33
2019-03-30T12:43:01.917Z,18.71
2019-03-30T12:45:30.949Z,18.70
2019-03-30T12:48:04.226Z,18.53
2019-03-30T12:51:27.154Z,18.52
2019-03-30T12:53:55.894Z,19.01
2019-03-30T12:56:25.145Z,19.56
2019-03-30T12:58:56.910Z,18.74
2019-03-30T13:01:25.717Z,18.88
2019-03-30T13:03:54.936Z,18.98
2019-03-30T13:06:23.678Z,19.15
2019-03-30T13:08:52.452Z,19.28
2019-03-30T13:11:21.284Z,19.74
2019-03-30T13:13:50.040Z,19.25
2019-03-30T13:16:18.771Z,19.16
2019-03-30T13:18:47.631Z,19.25
2019-03-30T13:21:17.820Z,19.15
2019-03-30T13:23:46.537Z,19.18
2019-03-30T13:26:31.080Z,19.30
2019-03-30T13:28:59.792Z,18.86
2019-03-30T13:31:31.220Z,18.68
2019-03-30T13:36:42.771Z,18.67
2019-03-30T13:39:12.001Z,18.59
2019-03-30T13:41:40.736Z,18.66
2019-03-30T13:44:11.279Z,18.99
2019-03-30T13:46:39.995Z,19.00
2019-03-30T13:49:08.730Z,19.39
2019-03-30T13:51:37.572Z,19.31
2019-03-30T13:54:06.310Z,19.47
2019-03-30T13:56:35.042Z,19.72
2019-03-30T13:59:03.906Z,19.82
2019-03-30T14:01:32.762Z,19.46
2019-03-30T14:04:12.890Z,19.21
2019-03-30T14:06:41.886Z,19.00
2019-03-30T14:09:10.626Z,18.85
2019-03-30T14:11:39.368Z,18.86
2019-03-30T14:14:08.250Z,18.54
2019-03-30T14:16:36.991Z,18.71
2019-03-30T14:19:05.729Z,19.24
2019-03-30T14:21:34.518Z,19.14
2019-03-30T14:24:06.036Z,19.26
2019-03-30T14:26:34.786Z,20.12
2019-03-30T14:29:05.914Z,20.35
2019-03-30T14:31:34.653Z,20.23
2019-03-30T14:34:03.435Z,19.81
2019-03-30T14:36:32.346Z,19.77
2019-03-30T14:39:01.135Z,19.15
2019-03-30T14:41:29.870Z,19.51
2019-03-30T14:43:58.696Z,19.85
2019-03-30T14:46:27.416Z,19.84
2019-03-30T14:48:56.171Z,19.39
2019-03-30T14:51:27.982Z,19.26
2019-03-30T14:53:56.704Z,18.97
2019-03-30T14:56:25.442Z,18.90
2019-03-30T14:58:54.221Z,18.99
2019-03-30T15:01:27.129Z,19.30
2019-03-30T15:03:58.816Z,18.89
2019-03-30T15:06:27.575Z,18.82
2019-03-30T15:08:57.786Z,18.57
2019-03-30T15:11:26.664Z,18.49
2019-03-30T15:13:55.404Z,18.60
2019-03-30T15:16:24.137Z,17.92
2019-03-30T15:18:52.927Z,17.82
2019-03-30T15:21:21.664Z,17.88
2019-03-30T15:23:50.386Z,17.82
2019-03-30T15:26:21.928Z,17.73
2019-03-30T15:28:49.742Z,17.82
2019-03-30T15:31:18.470Z,18.07
2019-03-30T15:33:47.293Z,17.84
2019-03-30T15:36:16.029Z,17.52
2019-03-30T15:38:44.756Z,17.38
2019-03-30T15:41:13.535Z,17.02
2019-03-30T15:43:42.265Z,16.80
2019-03-30T15:46:14.292Z,16.70
2019-03-30T15:48:41.598Z,16.53
2019-03-30T15:51:10.346Z,16.47
2019-03-30T15:53:39.091Z,16.50
2019-03-30T15:56:07.965Z,16.47
2019-03-30T15:58:36.718Z,16.54
2019-03-30T16:01:05.455Z,16.22
2019-03-30T16:03:34.230Z,16.06
2019-03-30T16:06:02.954Z,15.80
2019-03-30T16:08:31.695Z,15.81
2019-03-30T16:11:00.786Z,15.68
2019-03-30T16:13:29.516Z,15.47
2019-03-30T16:15:58.250Z,15.24
2019-03-30T16:18:27.049Z,15.04
2019-03-30T16:20:55.769Z,14.89
2019-03-30T16:23:24.500Z,14.58
2019-03-30T16:25:53.679Z,14.16
2019-03-30T16:28:22.419Z,13.91
2019-03-30T16:30:51.163Z,13.63
2019-03-30T16:33:19.967Z,13.50
2019-03-30T16:35:48.704Z,13.34
2019-03-30T16:38:17.437Z,13.15
2019-03-30T16:40:46.308Z,12.91
2019-03-30T16:43:15.050Z,12.61
2019-03-30T16:45:43.780Z,12.59
2019-03-30T16:48:19.980Z,12.30
2019-03-30T16:50:48.806Z,11.97
2019-03-30T16:53:17.566Z,11.68
2019-03-30T16:55:46.305Z,11.43
2019-03-30T16:58:15.032Z,11.34
2019-03-30T17:00:56.242Z,11.25
2019-03-30T17:03:14.629Z,11.16
2019-03-30T17:05:43.362Z,11.09
2019-03-30T17:08:12.134Z,11.02
2019-03-30T17:10:40.859Z,10.79
2019-03-30T17:13:09.602Z,10.64
2019-03-30T17:15:38.497Z,10.62
2019-03-30T17:18:07.254Z,10.50
2019-03-30T17:20:36.000Z,10.58
2019-03-30T17:23:05.129Z,10.48
2019-03-30T17:25:33.854Z,10.35
2019-03-30T17:28:02.582Z,10.33
2019-03-30T17:30:31.470Z,10.47
2019-03-30T17:33:00.197Z,10.64
2019-03-30T17:35:28.933Z,10.46
2019-03-30T17:37:57.974Z,10.33
2019-03-30T17:40:26.711Z,10.18
2019-03-30T17:42:55.443Z,10.13
2019-03-30T17:45:24.443Z,10.08
2019-03-30T17:47:53.176Z,10.24
2019-03-30T17:50:21.922Z,10.37
2019-03-30T17:52:50.713Z,10.51
2019-03-30T17:55:32.773Z,10.51
2019-03-30T17:57:49.909Z,10.47
2019-03-30T18:00:22.090Z,10.31
2019-03-30T18:02:50.814Z,9.86
2019-03-30T18:05:19.534Z,9.49
2019-03-30T18:07:48.297Z,9.19
2019-03-30T18:10:17.430Z,8.97
2019-03-30T18:12:46.162Z,8.85
2019-03-30T18:15:15.400Z,8.68
2019-03-30T18:17:44.123Z,8.58
2019-03-30T18:20:12.944Z,8.70
2019-03-30T18:22:41.738Z,8.79
2019-03-30T18:25:10.559Z,8.85
2019-03-30T18:27:39.282Z,9.33
2019-03-30T18:30:09.950Z,9.42
2019-03-30T18:32:38.681Z,9.06
2019-03-30T18:35:07.731Z,8.71
2019-03-30T18:37:37.800Z,8.59
2019-03-30T18:40:07.920Z,8.66
2019-03-30T18:42:36.658Z,8.64
2019-03-30T18:45:07.490Z,8.50
2019-03-30T18:47:36.222Z,8.38
2019-03-30T18:50:07.240Z,8.24
2019-03-30T18:52:37.415Z,8.37
2019-03-30T18:55:07.456Z,8.28
2019-03-30T18:57:36.165Z,8.12
2019-03-30T19:00:07.441Z,8.15
2019-03-30T19:02:36.173Z,7.80
2019-03-30T19:05:06.302Z,7.62
2019-03-30T19:07:35.121Z,7.49
2019-03-30T19:10:04.646Z,7.40
2019-03-30T19:12:33.375Z,7.24
2019-03-30T19:15:02.248Z,7.07
2019-03-30T19:17:30.973Z,7.00
2019-03-30T19:19:59.703Z,6.88
2019-03-30T19:22:28.721Z,6.80
2019-03-30T19:24:57.451Z,6.77
2019-03-30T19:27:26.174Z,6.91
2019-03-30T19:29:54.960Z,7.10
2019-03-30T19:32:23.691Z,7.26
2019-03-30T19:34:52.413Z,7.37
2019-03-30T19:37:21.361Z,7.50
2019-03-30T19:39:50.092Z,7.25
2019-03-30T19:42:20.259Z,7.17
2019-03-30T19:44:49.127Z,7.10
2019-03-30T19:47:17.857Z,6.96
2019-03-30T19:49:46.594Z,6.85
2019-03-30T19:52:15.386Z,6.69
2019-03-30T19:54:44.107Z,6.76
2019-03-30T19:57:12.841Z,6.85
2019-03-30T19:59:41.886Z,6.89
2019-03-30T20:02:10.732Z,6.77
2019-03-30T20:04:39.508Z,6.73
2019-03-30T20:07:08.668Z,6.63
2019-03-30T20:09:37.415Z,6.53
2019-03-30T20:12:06.374Z,6.41
2019-03-30T20:14:35.272Z,6.34
2019-03-30T20:17:04.194Z,6.29
2019-03-30T20:19:32.918Z,6.20
2019-03-30T20:22:01.717Z,6.11
2019-03-30T20:24:30.447Z,6.05
2019-03-30T20:26:59.179Z,6.25
2019-03-30T20:29:28.067Z,6.29
2019-03-30T20:31:59.833Z,6.24
2019-03-30T20:34:28.557Z,6.10
2019-03-30T20:36:57.373Z,5.95
2019-03-30T20:39:26.446Z,5.92
2019-03-30T20:41:55.153Z,5.89
2019-03-30T20:44:23.994Z,6.10
2019-03-30T20:46:52.724Z,5.94
2019-03-30T20:49:21.458Z,5.82
2019-03-30T20:51:50.618Z,5.71
2019-03-30T20:54:20.557Z,5.68
2019-03-30T20:56:49.249Z,5.46
2019-03-30T20:59:18.338Z,5.31
2019-03-30T21:01:47.061Z,5.26
2019-03-30T21:04:15.797Z,5.16
2019-03-30T21:06:44.550Z,5.17
2019-03-30T21:09:13.274Z,5.13
2019-03-30T21:11:42.003Z,4.89
2019-03-30T21:14:10.950Z,4.80
2019-03-30T21:16:39.675Z,4.64
2019-03-30T21:19:08.404Z,4.44
2019-03-30T21:21:37.272Z,4.29
2019-03-30T21:24:05.996Z,4.22
2019-03-30T21:26:34.723Z,4.46
2019-03-30T21:29:03.485Z,4.36
2019-03-30T21:31:32.210Z,4.24
2019-03-30T21:34:00.936Z,4.12
2019-03-30T21:36:29.707Z,4.19
2019-03-30T21:38:58.419Z,4.31
2019-03-30T21:41:27.142Z,4.46
2019-03-30T21:43:56.105Z,4.54
2019-03-30T21:46:24.834Z,4.53
2019-03-30T21:48:53.556Z,4.72
2019-03-30T21:51:22.413Z,4.73
2019-03-30T21:53:51.136Z,4.70
2019-03-30T21:56:19.866Z,4.61
2019-03-30T21:58:49.117Z,4.53
2019-03-30T22:01:17.829Z,4.43
2019-03-30T22:03:46.552Z,4.42
2019-03-30T22:06:15.324Z,4.34
2019-03-30T22:08:44.144Z,4.43
2019-03-30T22:11:12.873Z,4.54
2019-03-30T22:13:41.749Z,4.55
2019-03-30T22:16:10.472Z,4.58
2019-03-30T22:18:39.200Z,4.59
2019-03-30T22:21:08.397Z,4.57
2019-03-30T22:23:37.122Z,4.55
2019-03-30T22:26:06.012Z,4.57
2019-03-30T22:28:34.830Z,4.61
2019-03-30T22:31:03.551Z,4.68
2019-03-30T22:33:32.274Z,4.70
2019-03-30T22:36:01.085Z,4.72
2019-03-30T22:38:29.816Z,4.76
2019-03-30T22:40:58.550Z,4.78
2019-03-30T22:43:27.665Z,4.61
2019-03-30T22:45:56.402Z,4.50
2019-03-30T22:48:25.118Z,4.48
2019-03-30T22:50:53.929Z,4.46
2019-03-30T22:53:22.658Z,4.50
2019-03-30T22:55:51.386Z,4.54
2019-03-30T22:58:20.268Z,4.58
2019-03-30T23:00:56.479Z,4.67
2019-03-30T23:03:25.243Z,4.68
2019-03-30T23:05:53.973Z,4.64
2019-03-30T23:08:22.692Z,4.61
2019-03-30T23:10:51.544Z,4.55
2019-03-30T23:13:20.274Z,4.47
2019-03-30T23:15:49.003Z,4.50
2019-03-30T23:18:17.762Z,4.55
2019-03-30T23:20:46.491Z,4.45
2019-03-30T23:23:15.213Z,4.39
2019-03-30T23:25:44.020Z,4.28
2019-03-30T23:28:12.751Z,4.15
2019-03-30T23:30:53.716Z,4.07
2019-03-30T23:33:12.090Z,4.09
2019-03-30T23:35:40.813Z,4.01
2019-03-30T23:38:09.536Z,3.99
2019-03-30T23:40:38.506Z,4.01
2019-03-30T23:43:07.239Z,3.97
2019-03-30T23:45:35.970Z,4.05
2019-03-30T23:48:04.846Z,4.03
2019-03-30T23:50:33.574Z,4.06
2019-03-30T23:53:02.295Z,4.04
2019-03-30T23:55:31.068Z,4.00
2019-03-30T23:57:59.804Z,3.97
